Time;durP1;ratioP1;P1;durP2;ratioP2;P2;SDS_P1;SDS_P2;PMS_P1;PMS_P2;Temp;Humidity;BMP_temperature;BMP_pressure;BME280_temperature;BME280_humidity;BME280_pressure;Samples;Min_cycle;Max_cycle;Signal;HPM_P1;HPM_P2
2022/04/03 00:00:50;;;;;;;17.63;3.00;;;30.90;30.70;;;;;;5030340;28;20080;-62
2022/04/03 00:03:16;;;;;;;17.58;3.33;;;30.80;30.30;;;;;;5047292;28;20076;-62
2022/04/03 00:05:43;;;;;;;16.30;3.10;;;30.70;30.30;;;;;;5047567;28;20493;-59
2022/04/03 00:08:12;;;;;;;67.57;9.95;;;30.60;32.00;;;;;;5046699;28;20068;-64
2022/04/03 00:10:42;;;;;;;13.48;3.00;;;30.50;33.50;;;;;;5047895;28;20543;-61
2022/04/03 00:13:08;;;;;;;11.55;3.13;;;30.30;31.00;;;;;;5048657;28;20072;-61
2022/04/03 00:15:41;;;;;;;25.60;3.88;;;30.10;30.80;;;;;;5047272;28;20116;-64
2022/04/03 00:18:08;;;;;;;15.55;3.10;;;29.80;31.70;;;;;;5047232;28;20088;-61
2022/04/03 00:20:40;;;;;;;14.00;3.00;;;29.80;32.70;;;;;;5036829;28;20183;-60
2022/04/03 00:23:06;;;;;;;11.55;2.85;;;29.60;32.50;;;;;;5045013;28;20116;-61
2022/04/03 00:25:33;;;;;;;12.57;3.20;;;29.60;32.10;;;;;;5046849;28;20536;-61
2022/04/03 00:28:00;;;;;;;14.60;3.83;;;29.70;32.10;;;;;;5047859;28;20091;-63
2022/04/03 00:30:26;;;;;;;14.85;3.00;;;29.90;32.80;;;;;;5030061;28;20079;-61
2022/04/03 00:32:52;;;;;;;11.48;2.70;;;29.90;31.60;;;;;;5046197;28;20084;-59
2022/04/03 00:35:20;;;;;;;27.48;4.10;;;29.90;31.80;;;;;;5045938;28;20104;-61
2022/04/03 00:37:47;;;;;;;13.05;3.47;;;29.90;32.20;;;;;;5046738;28;20111;-61
2022/04/03 00:40:15;;;;;;;18.63;3.90;;;29.90;31.60;;;;;;5046420;28;20073;-63
2022/04/03 00:42:41;;;;;;;23.30;3.55;;;29.80;31.90;;;;;;5048069;28;20153;-63
2022/04/03 00:45:09;;;;;;;18.25;3.10;;;29.70;31.30;;;;;;5051323;28;20096;-59
2022/04/03 00:47:35;;;;;;;15.90;2.60;;;29.50;31.30;;;;;;5066575;28;20069;-62
2022/04/03 00:50:02;;;;;;;24.27;3.22;;;29.40;30.90;;;;;;5050701;28;20077;-60
2022/04/03 00:52:29;;;;;;;14.52;2.85;;;29.30;31.30;;;;;;5050435;28;20100;-62
2022/04/03 00:54:55;;;;;;;18.17;2.80;;;29.10;31.10;;;;;;5050070;28;20092;-63
2022/04/03 00:57:23;;;;;;;32.53;3.88;;;29.00;31.20;;;;;;5051980;28;20080;-61
2022/04/03 00:59:50;;;;;;;17.13;3.28;;;28.90;31.00;;;;;;5018158;28;20083;-59
2022/04/03 01:02:17;;;;;;;23.92;3.83;;;28.90;32.00;;;;;;5051137;28;20079;-59
2022/04/03 01:04:43;;;;;;;29.40;3.38;;;28.70;32.00;;;;;;5051463;28;20427;-63
2022/04/03 01:07:10;;;;;;;17.23;3.10;;;28.40;31.80;;;;;;5049560;28;20068;-61
2022/04/03 01:09:36;;;;;;;46.45;4.63;;;28.20;31.30;;;;;;5050592;28;20103;-60
2022/04/03 01:12:04;;;;;;;25.63;3.15;;;28.10;31.40;;;;;;5049544;28;20159;-57
2022/04/03 01:14:35;;;;;;;30.65;3.65;;;28.10;31.00;;;;;;5050168;28;20094;-62
2022/04/03 01:17:03;;;;;;;21.27;3.35;;;28.00;30.20;;;;;;5050245;28;20560;-61
2022/04/03 01:19:30;;;;;;;23.92;4.47;;;28.00;29.80;;;;;;5032216;28;20092;-59
2022/04/03 01:21:57;;;;;;;30.42;4.55;;;27.90;29.40;;;;;;5049925;28;20121;-62
2022/04/03 01:24:25;;;;;;;23.52;4.03;;;27.80;29.70;;;;;;5050591;28;20080;-61
2022/04/03 01:26:53;;;;;;;19.35;5.15;;;27.70;29.70;;;;;;5048732;28;20552;-62
2022/04/03 01:29:19;;;;;;;22.92;4.82;;;27.60;29.60;;;;;;5049425;28;20088;-61
2022/04/03 01:31:47;;;;;;;14.05;4.50;;;27.50;30.10;;;;;;5050083;28;20127;-61
2022/04/03 01:34:17;;;;;;;36.50;4.30;;;27.30;30.50;;;;;;5050207;28;20097;-63
2022/04/03 01:36:45;;;;;;;27.27;4.30;;;27.30;29.50;;;;;;5017558;28;20139;-60
2022/04/03 01:39:11;;;;;;;26.98;4.88;;;27.10;29.10;;;;;;5049331;28;20922;-61
2022/04/03 01:41:43;;;;;;;32.45;5.72;;;27.00;28.60;;;;;;5049289;28;20088;-59
2022/04/03 01:44:10;;;;;;;21.90;6.05;;;26.90;28.90;;;;;;5049567;28;20072;-62
2022/04/03 01:46:38;;;;;;;27.20;4.75;;;26.70;29.50;;;;;;5050534;28;20568;-63
2022/04/03 01:49:05;;;;;;;27.98;4.60;;;26.70;30.10;;;;;;5051254;28;20092;-61
2022/04/03 01:51:33;;;;;;;20.38;3.28;;;26.50;30.10;;;;;;5049434;28;20095;-61
2022/04/03 01:54:01;;;;;;;14.02;2.92;;;26.30;30.60;;;;;;5050599;28;20088;-61
2022/04/03 01:56:28;;;;;;;18.25;2.92;;;26.30;31.00;;;;;;5049995;28;20184;-62
2022/04/03 01:58:54;;;;;;;20.85;3.17;;;26.20;31.20;;;;;;5049280;28;20065;-61
2022/04/03 02:01:21;;;;;;;16.15;3.33;;;26.10;31.60;;;;;;5049285;28;20092;-62
2022/04/03 02:03:48;;;;;;;21.95;3.38;;;26.10;32.50;;;;;;5048118;28;20092;-61
2022/04/03 02:06:15;;;;;;;22.08;3.25;;;26.00;32.90;;;;;;5049486;28;20105;-60
2022/04/03 02:08:43;;;;;;;13.00;3.08;;;25.90;33.30;;;;;;5049531;28;20100;-64
2022/04/03 02:11:09;;;;;;;20.95;3.30;;;25.80;33.30;;;;;;5047769;28;20085;-61
2022/04/03 02:13:36;;;;;;;18.30;3.22;;;25.70;33.70;;;;;;5050047;28;21441;-61
2022/04/03 02:16:02;;;;;;;19.58;3.28;;;25.70;33.80;;;;;;5048938;28;20195;-60
2022/04/03 02:18:29;;;;;;;30.85;4.25;;;25.60;33.90;;;;;;5049362;28;20118;-62
2022/04/03 02:20:55;;;;;;;18.10;3.35;;;25.50;34.10;;;;;;5049167;28;20079;-61
2022/04/03 02:23:21;;;;;;;16.48;3.17;;;25.40;34.10;;;;;;5050119;28;20537;-59
2022/04/03 02:25:50;;;;;;;21.00;3.35;;;25.40;33.80;;;;;;5048820;28;20085;-61
2022/04/03 02:28:17;;;;;;;29.92;4.05;;;25.30;33.40;;;;;;5050717;28;20180;-60
2022/04/03 02:30:44;;;;;;;20.90;3.33;;;25.20;33.90;;;;;;5032067;28;20518;-59
2022/04/03 02:33:10;;;;;;;18.80;3.85;;;25.20;34.00;;;;;;5030744;28;20080;-61
2022/04/03 02:35:37;;;;;;;16.52;3.65;;;25.10;34.50;;;;;;5046993;28;20072;-60
2022/04/03 02:38:03;;;;;;;20.75;3.15;;;25.10;34.90;;;;;;5047594;28;20068;-59
2022/04/03 02:40:30;;;;;;;20.60;4.25;;;25.00;35.30;;;;;;5047479;28;20085;-61
2022/04/03 02:42:56;;;;;;;21.88;4.38;;;25.00;35.80;;;;;;5048100;28;20089;-60
2022/04/03 02:45:23;;;;;;;22.65;4.47;;;24.90;36.20;;;;;;5048479;28;20167;-60
2022/04/03 02:47:55;;;;;;;24.10;4.60;;;24.80;36.70;;;;;;5050516;28;20156;-61
2022/04/03 02:50:24;;;;;;;28.85;4.70;;;24.80;37.20;;;;;;5049096;28;20073;-61
2022/04/03 02:52:52;;;;;;;17.60;4.40;;;24.70;37.70;;;;;;5048514;28;20077;-60
2022/04/03 02:55:22;;;;;;;33.47;4.32;;;24.70;38.20;;;;;;5049507;28;20086;-61
2022/04/03 02:57:49;;;;;;;25.77;4.68;;;24.50;38.60;;;;;;5049313;28;20170;-60
2022/04/03 03:00:17;;;;;;;18.23;3.97;;;24.50;38.80;;;;;;5032617;28;20078;-62
2022/04/03 03:02:44;;;;;;;30.50;4.68;;;24.50;39.00;;;;;;5031182;28;20077;-60
2022/04/03 03:05:13;;;;;;;19.58;4.22;;;24.50;39.20;;;;;;5047805;28;20164;-60
2022/04/03 03:07:41;;;;;;;21.42;4.47;;;24.40;39.20;;;;;;5048185;28;20532;-58
2022/04/03 03:10:10;;;;;;;18.77;3.42;;;24.30;39.40;;;;;;5046287;28;20069;-61
2022/04/03 03:12:36;;;;;;;22.50;4.18;;;24.30;39.80;;;;;;5045384;28;20084;-60
2022/04/03 03:15:04;;;;;;;27.67;4.15;;;24.20;40.10;;;;;;5048300;28;20105;-60
2022/04/03 03:17:31;;;;;;;15.77;3.40;;;24.20;40.20;;;;;;5050109;28;20456;-61
2022/04/03 03:19:58;;;;;;;25.80;4.88;;;24.10;40.50;;;;;;5048836;28;20518;-61
2022/04/03 03:22:25;;;;;;;18.20;5.05;;;24.00;40.60;;;;;;5048396;28;20159;-60
2022/04/03 03:24:51;;;;;;;29.33;6.60;;;24.00;40.60;;;;;;5048564;28;20070;-59
2022/04/03 03:27:18;;;;;;;29.02;7.47;;;24.00;41.00;;;;;;5030929;28;20066;-60
2022/04/03 03:29:44;;;;;;;22.08;7.05;;;23.90;41.00;;;;;;5048752;28;20156;-60
2022/04/03 03:32:10;;;;;;;32.42;7.30;;;23.90;41.20;;;;;;5031755;28;20583;-61
2022/04/03 03:34:37;;;;;;;33.60;7.70;;;23.80;41.70;;;;;;5047375;28;20080;-60
2022/04/03 03:37:03;;;;;;;35.50;7.38;;;23.80;41.70;;;;;;5048155;28;20155;-61
2022/04/03 03:39:31;;;;;;;33.63;8.73;;;23.80;41.70;;;;;;5048147;28;20094;-62
2022/04/03 03:41:57;;;;;;;38.33;8.10;;;23.80;41.70;;;;;;5048170;28;20074;-62
2022/04/03 03:44:24;;;;;;;37.53;9.13;;;23.70;41.70;;;;;;5047840;28;20073;-59
2022/04/03 03:46:50;;;;;;;47.75;11.77;;;23.70;41.50;;;;;;5047887;28;20103;-61
2022/04/03 03:49:16;;;;;;;66.50;11.68;;;23.60;41.40;;;;;;5048255;28;20069;-62
2022/04/03 03:51:43;;;;;;;58.60;11.98;;;23.60;41.20;;;;;;5047903;28;20142;-60
2022/04/03 03:54:10;;;;;;;48.35;11.05;;;23.60;41.30;;;;;;5048355;28;20131;-61
2022/04/03 03:56:36;;;;;;;61.65;10.02;;;23.60;41.40;;;;;;5047942;28;20171;-61
2022/04/03 03:59:05;;;;;;;49.70;9.02;;;23.50;41.20;;;;;;5031110;28;20494;-60
2022/04/03 04:01:32;;;;;;;56.92;8.63;;;23.50;41.30;;;;;;5047540;28;20086;-59
2022/04/03 04:03:58;;;;;;;45.17;7.82;;;23.40;41.80;;;;;;5047265;28;20081;-60
2022/04/03 04:06:24;;;;;;;60.88;8.50;;;23.40;42.00;;;;;;5047665;28;20090;-60
2022/04/03 04:08:51;;;;;;;51.50;8.93;;;23.30;42.10;;;;;;5031041;28;20080;-59
2022/04/03 04:11:17;;;;;;;55.97;9.50;;;23.30;42.30;;;;;;5047481;28;20512;-59
2022/04/03 04:13:44;;;;;;;57.20;10.25;;;23.20;42.90;;;;;;5047768;28;20126;-63
2022/04/03 04:16:10;;;;;;;66.78;10.95;;;23.20;43.30;;;;;;5047916;28;20585;-60
2022/04/03 04:18:37;;;;;;;60.80;13.25;;;23.10;44.10;;;;;;5014512;28;20101;-61
2022/04/03 04:21:04;;;;;;;55.70;13.77;;;23.10;43.30;;;;;;5047563;28;20623;-61
2022/04/03 04:23:31;;;;;;;54.97;15.18;;;23.10;43.40;;;;;;5048389;28;20077;-59
2022/04/03 04:25:58;;;;;;;62.55;15.10;;;23.00;43.50;;;;;;5030473;28;20081;-61
2022/04/03 04:28:25;;;;;;;59.30;14.85;;;23.00;43.50;;;;;;5047060;28;20094;-60
2022/04/03 04:30:51;;;;;;;50.33;13.77;;;22.90;43.70;;;;;;5046886;28;20077;-62
2022/04/03 04:33:19;;;;;;;46.50;12.75;;;22.80;43.80;;;;;;5029811;28;20074;-59
2022/04/03 04:35:45;;;;;;;54.13;13.65;;;22.80;44.00;;;;;;5061924;28;20444;-60
2022/04/03 04:38:11;;;;;;;56.67;14.27;;;22.80;44.10;;;;;;5047889;28;20151;-60
2022/04/03 04:40:38;;;;;;;58.45;18.08;;;22.70;44.00;;;;;;5047937;28;20080;-62
2022/04/03 04:43:04;;;;;;;65.43;18.33;;;22.60;44.10;;;;;;5030772;28;20082;-61
2022/04/03 04:45:31;;;;;;;69.10;17.63;;;22.60;44.30;;;;;;5047011;28;20139;-60
2022/04/03 04:48:00;;;;;;;59.50;14.80;;;22.60;44.50;;;;;;5048402;28;20482;-61
2022/04/03 04:50:28;;;;;;;64.47;14.80;;;22.50;44.40;;;;;;5048104;28;20507;-60
2022/04/03 04:52:56;;;;;;;38.75;11.70;;;22.50;44.50;;;;;;5047215;28;20556;-59
2022/04/03 04:55:24;;;;;;;39.90;11.23;;;22.50;44.20;;;;;;5030349;28;20097;-62
2022/04/03 04:57:54;;;;;;;33.70;10.30;;;22.50;44.00;;;;;;5048245;28;20077;-59
2022/04/03 05:00:23;;;;;;;35.78;9.43;;;22.40;43.60;;;;;;5046268;28;20073;-60
2022/04/03 05:02:50;;;;;;;31.33;8.25;;;22.30;43.40;;;;;;5031223;28;20084;-62
2022/04/03 05:05:21;;;;;;;35.65;8.95;;;22.30;43.10;;;;;;5047288;28;20619;-61
2022/04/03 05:07:52;;;;;;;35.85;8.88;;;22.30;43.00;;;;;;5046384;28;20074;-61
2022/04/03 05:10:20;;;;;;;40.20;9.70;;;22.30;42.50;;;;;;5029338;28;20541;-61
2022/04/03 05:12:47;;;;;;;32.63;8.88;;;22.30;42.50;;;;;;5048782;28;20074;-63
2022/04/03 05:15:15;;;;;;;40.78;9.07;;;22.30;42.20;;;;;;5030909;28;20760;-61
2022/04/03 05:17:43;;;;;;;36.20;8.93;;;22.30;42.00;;;;;;5061720;28;20073;-60
2022/04/03 05:20:12;;;;;;;28.13;7.72;;;22.20;42.10;;;;;;5045893;28;20081;-64
2022/04/03 05:22:42;;;;;;;39.17;7.55;;;22.20;42.20;;;;;;5047424;28;20082;-61
2022/04/03 05:25:13;;;;;;;34.10;7.68;;;22.20;41.90;;;;;;5047948;28;21036;-60
2022/04/03 05:27:41;;;;;;;27.98;6.70;;;22.20;42.10;;;;;;5046221;28;20082;-60
2022/04/03 05:30:08;;;;;;;23.33;6.38;;;22.20;41.80;;;;;;5049648;28;20164;-61
2022/04/03 05:32:36;;;;;;;32.13;7.22;;;22.20;41.80;;;;;;5049045;28;20085;-61
2022/04/03 05:35:04;;;;;;;26.67;6.57;;;22.20;41.60;;;;;;5051928;28;20065;-64
2022/04/03 05:37:30;;;;;;;26.92;6.78;;;22.10;41.50;;;;;;5033899;28;20074;-61
2022/04/03 05:39:57;;;;;;;20.63;6.45;;;22.10;41.50;;;;;;5034200;28;20169;-63
2022/04/03 05:42:23;;;;;;;33.08;6.57;;;22.00;41.60;;;;;;5050444;28;20074;-60
2022/04/03 05:44:50;;;;;;;25.52;5.78;;;22.10;41.60;;;;;;5050558;28;20078;-61
2022/04/03 05:47:17;;;;;;;28.17;6.20;;;22.10;42.00;;;;;;5051588;28;20093;-62
2022/04/03 05:49:44;;;;;;;28.70;5.63;;;22.00;42.70;;;;;;5051548;28;20102;-64
2022/04/03 05:52:11;;;;;;;24.77;6.57;;;22.00;42.90;;;;;;5050256;28;20092;-61
2022/04/03 05:54:38;;;;;;;26.77;6.15;;;22.00;43.20;;;;;;5051137;28;20117;-63
2022/04/03 05:57:05;;;;;;;33.60;6.78;;;21.90;43.40;;;;;;5049013;28;20517;-64
2022/04/03 05:59:32;;;;;;;29.40;6.45;;;21.80;43.70;;;;;;5050155;28;20120;-64
2022/04/03 06:01:59;;;;;;;33.83;6.90;;;21.80;43.90;;;;;;5050103;28;20147;-61
2022/04/03 06:04:25;;;;;;;25.23;6.50;;;21.80;43.90;;;;;;5049863;28;20076;-61
2022/04/03 06:06:52;;;;;;;23.13;6.05;;;21.70;44.70;;;;;;5050702;28;20514;-61
2022/04/03 06:09:18;;;;;;;26.35;6.45;;;21.70;44.40;;;;;;5050327;28;20164;-61
2022/04/03 06:11:44;;;;;;;35.58;7.18;;;21.60;44.80;;;;;;5049726;28;20575;-62
2022/04/03 06:14:11;;;;;;;24.90;6.20;;;21.60;44.90;;;;;;5050987;28;20074;-61
2022/04/03 06:16:37;;;;;;;17.48;5.70;;;21.50;45.20;;;;;;5049158;28;20128;-63
2022/04/03 06:19:04;;;;;;;18.00;5.50;;;21.50;45.50;;;;;;5050687;28;20130;-62
2022/04/03 06:21:30;;;;;;;21.17;5.28;;;21.50;45.70;;;;;;5049421;28;20089;-62
2022/04/03 06:23:56;;;;;;;23.88;5.32;;;21.40;45.90;;;;;;5051211;28;20164;-60
2022/04/03 06:26:23;;;;;;;26.30;5.43;;;21.20;46.40;;;;;;5049715;28;20085;-61
2022/04/03 06:28:49;;;;;;;20.02;5.07;;;21.20;47.70;;;;;;5049850;28;20086;-61
2022/04/03 06:31:16;;;;;;;19.27;5.80;;;21.30;48.50;;;;;;5050822;28;20464;-61
2022/04/03 06:33:42;;;;;;;22.98;5.15;;;21.20;49.80;;;;;;5049176;28;20165;-62
2022/04/03 06:36:08;;;;;;;17.25;5.10;;;21.20;50.70;;;;;;5050164;28;20101;-60
2022/04/03 06:38:35;;;;;;;21.23;4.60;;;21.20;51.90;;;;;;5049456;28;20119;-59
2022/04/03 06:41:02;;;;;;;16.63;4.03;;;21.10;53.10;;;;;;5048804;28;20146;-60
2022/04/03 06:43:30;;;;;;;22.13;5.00;;;21.00;54.20;;;;;;5033284;28;20076;-61
2022/04/03 06:45:57;;;;;;;24.00;5.82;;;21.00;54.80;;;;;;5014831;28;20133;-64
2022/04/03 06:48:27;;;;;;;56.78;8.23;;;20.90;55.50;;;;;;5032844;28;20403;-61
2022/04/03 06:50:54;;;;;;;68.50;7.65;;;20.80;56.80;;;;;;5049492;28;20160;-62
2022/04/03 06:53:20;;;;;;;90.97;8.30;;;20.70;58.30;;;;;;5049285;28;20081;-60
2022/04/03 06:55:47;;;;;;;38.38;5.93;;;20.70;58.90;;;;;;5032793;28;20092;-61
2022/04/03 06:58:14;;;;;;;46.15;5.78;;;20.70;59.90;;;;;;5048833;28;20078;-61
2022/04/03 07:00:41;;;;;;;18.83;4.88;;;20.70;60.50;;;;;;5032397;28;20138;-60
2022/04/03 07:03:07;;;;;;;21.85;4.28;;;20.60;61.00;;;;;;5047675;28;20069;-61
2022/04/03 07:05:34;;;;;;;19.58;5.43;;;20.70;61.80;;;;;;5031123;28;20085;-62
2022/04/03 07:08:00;;;;;;;23.95;5.22;;;20.60;63.00;;;;;;5048165;28;20536;-61
2022/04/03 07:10:27;;;;;;;25.00;5.90;;;20.60;63.80;;;;;;5049162;28;20575;-61
2022/04/03 07:12:55;;;;;;;19.88;5.32;;;20.60;64.20;;;;;;5048096;28;20077;-61
2022/04/03 07:15:21;;;;;;;20.30;4.68;;;20.60;64.60;;;;;;5048657;28;20200;-63
2022/04/03 07:17:48;;;;;;;19.30;4.25;;;20.50;65.60;;;;;;5048287;28;20073;-63
2022/04/03 07:20:14;;;;;;;16.83;4.30;;;20.40;66.80;;;;;;5064007;28;20529;-61
2022/04/03 07:22:42;;;;;;;21.15;4.82;;;20.40;67.60;;;;;;5047805;28;20077;-63
2022/04/03 07:25:10;;;;;;;18.38;5.20;;;20.30;68.40;;;;;;5015981;28;20073;-60
2022/04/03 07:27:37;;;;;;;22.77;4.93;;;20.30;69.10;;;;;;5048348;28;20065;-60
2022/04/03 07:30:05;;;;;;;18.48;4.93;;;20.20;70.00;;;;;;5048517;28;20066;-60
2022/04/03 07:32:32;;;;;;;18.23;4.63;;;20.20;70.90;;;;;;5047909;28;20073;-59
2022/04/03 07:34:58;;;;;;;17.02;4.00;;;20.10;72.00;;;;;;5031428;28;20069;-60
2022/04/03 07:37:25;;;;;;;15.55;4.22;;;20.10;72.70;;;;;;5041515;28;20445;-62
2022/04/03 07:39:51;;;;;;;24.92;4.82;;;20.10;73.10;;;;;;5030791;28;20540;-60
2022/04/03 07:42:17;;;;;;;;;;;20.10;74.10;;;;;;5045075;28;20464;-61
2022/04/03 07:44:44;;;;;;;26.63;6.15;;;20.10;75.40;;;;;;5045858;28;19964;-60
2022/04/03 07:47:11;;;;;;;22.08;5.40;;;20.00;76.00;;;;;;5030779;28;20109;-60
2022/04/03 07:49:37;;;;;;;25.30;5.70;;;20.00;77.00;;;;;;5046870;28;20080;-60
2022/04/03 07:52:04;;;;;;;26.80;5.82;;;20.00;78.20;;;;;;5046633;28;20074;-59
2022/04/03 07:54:31;;;;;;;22.63;4.93;;;19.80;79.50;;;;;;5049241;28;20095;-62
2022/04/03 07:56:57;;;;;;;25.38;6.13;;;19.80;80.40;;;;;;5031435;28;20069;-62
2022/04/03 07:59:24;;;;;;;18.85;5.47;;;19.80;81.40;;;;;;5047853;28;20077;-58
2022/04/03 08:01:50;;;;;;;22.75;5.43;;;19.80;82.90;;;;;;5047403;28;20077;-61
2022/04/03 08:04:17;;;;;;;26.25;5.00;;;19.80;84.20;;;;;;5030801;28;20077;-60
2022/04/03 08:06:43;;;;;;;;;;;19.70;84.80;;;;;;5048837;28;20181;-60
2022/04/03 08:09:12;;;;;;;18.10;4.45;;;19.70;85.80;;;;;;5047146;28;20027;-60
2022/04/03 08:11:41;;;;;;;18.65;4.35;;;19.70;87.70;;;;;;5047081;28;20093;-61
2022/04/03 08:14:07;;;;;;;17.88;4.95;;;19.60;89.50;;;;;;5039589;28;20069;-60
2022/04/03 08:16:34;;;;;;;17.98;4.03;;;19.50;90.40;;;;;;5028572;28;20112;-61
2022/04/03 08:19:03;;;;;;;18.30;4.43;;;19.50;91.20;;;;;;5047078;28;20082;-61
2022/04/03 08:21:30;;;;;;;18.85;4.93;;;19.50;91.50;;;;;;5046599;28;20089;-60
2022/04/03 08:23:57;;;;;;;31.48;5.10;;;19.40;91.70;;;;;;5047110;28;20096;-61
2022/04/03 08:26:26;;;;;;;15.68;4.65;;;19.30;92.20;;;;;;5016463;28;20092;-63
2022/04/03 08:28:53;;;;;;;19.02;4.53;;;19.30;93.20;;;;;;5030613;28;20076;-59
2022/04/03 08:31:22;;;;;;;19.58;5.05;;;19.00;94.80;;;;;;5046201;28;20162;-60
2022/04/03 08:33:52;;;;;;;10.68;3.70;;;19.10;95.50;;;;;;5032755;28;20069;-59
2022/04/03 08:36:19;;;;;;;18.70;4.82;;;19.10;96.10;;;;;;5047010;28;20078;-63
2022/04/03 08:38:46;;;;;;;20.08;5.10;;;19.10;96.40;;;;;;5047788;28;20086;-63
2022/04/03 08:41:13;;;;;;;18.45;4.35;;;19.00;96.60;;;;;;5046721;28;20165;-59
2022/04/03 08:43:43;;;;;;;15.00;3.78;;;18.90;97.20;;;;;;5048981;28;20097;-60
2022/04/03 08:46:09;;;;;;;20.38;4.53;;;18.90;97.60;;;;;;5046085;28;20560;-63
2022/04/03 08:48:42;;;;;;;13.10;4.43;;;18.90;98.10;;;;;;5034138;28;20078;-60
2022/04/03 08:51:08;;;;;;;20.00;4.88;;;18.90;98.50;;;;;;5048590;28;20089;-62
2022/04/03 08:53:35;;;;;;;19.25;4.25;;;18.90;99.00;;;;;;5046656;28;20444;-61
2022/04/03 08:56:02;;;;;;;15.52;4.82;;;18.80;99.40;;;;;;5046982;28;20113;-61
2022/04/03 08:58:28;;;;;;;27.63;5.55;;;18.80;99.80;;;;;;5029959;28;20080;-59
2022/04/03 09:00:55;;;;;;;;;;;18.80;99.90;;;;;;5045605;28;20076;-60
2022/04/03 09:03:21;;;;;;;21.33;6.82;;;18.60;99.90;;;;;;5046386;28;19957;-60
2022/04/03 09:05:48;;;;;;;21.35;6.00;;;18.60;99.90;;;;;;5033053;28;20184;-62
2022/04/03 09:08:14;;;;;;;20.75;6.10;;;18.70;99.90;;;;;;5035806;28;20151;-60
2022/04/03 09:10:41;;;;;;;18.80;5.82;;;18.50;99.90;;;;;;5050395;28;20076;-58
2022/04/03 09:13:09;;;;;;;24.65;5.80;;;18.40;99.90;;;;;;5050691;28;20073;-63
2022/04/03 09:15:37;;;;;;;15.77;6.43;;;18.50;99.90;;;;;;5050286;28;20561;-62
2022/04/03 09:18:06;;;;;;;20.35;6.30;;;18.40;99.90;;;;;;5049894;28;20077;-60
2022/04/03 09:20:40;;;;;;;23.88;7.65;;;18.40;99.90;;;;;;5034096;28;20074;-63
2022/04/03 09:23:11;;;;;;;18.92;6.82;;;18.30;99.90;;;;;;5050102;28;20546;-60
2022/04/03 09:25:43;;;;;;;25.25;5.95;;;18.20;99.90;;;;;;5050739;28;20089;-59
2022/04/03 09:28:13;;;;;;;15.75;5.43;;;18.20;99.90;;;;;;5032654;28;20563;-58
2022/04/03 09:30:43;;;;;;;16.80;4.85;;;18.10;99.90;;;;;;5035670;28;20117;-62
2022/04/03 09:33:13;;;;;;;21.83;6.07;;;18.20;99.90;;;;;;5051389;28;20437;-62
2022/04/03 09:36:01;;;;;;;19.52;5.00;;;18.00;99.90;;;;;;5034561;28;20525;-60
2022/04/03 09:38:29;;;;;;;20.58;5.03;;;18.10;99.90;;;;;;5050466;28;20164;-61
2022/04/03 09:40:58;;;;;;;20.90;5.07;;;18.00;99.90;;;;;;5033025;28;20121;-60
2022/04/03 09:43:31;;;;;;;16.65;4.75;;;18.10;99.90;;;;;;5050694;28;20077;-60
2022/04/03 09:46:01;;;;;;;11.45;4.28;;;18.10;99.90;;;;;;5048289;28;20632;-61
2022/04/03 09:48:34;;;;;;;16.15;4.47;;;18.10;99.90;;;;;;5051267;28;20143;-61
2022/04/03 09:51:11;;;;;;;17.45;4.63;;;18.20;99.90;;;;;;5049701;28;20108;-60
2022/04/03 09:53:41;;;;;;;;;;;18.10;99.90;;;;;;5033367;28;20097;-60
2022/04/03 09:56:09;;;;;;;21.67;5.03;;;18.00;99.90;;;;;;5052751;28;20503;-62
2022/04/03 09:58:54;;;;;;;26.50;5.43;;;18.00;99.90;;;;;;5053513;28;20088;-62
2022/04/03 10:01:42;;;;;;;19.17;5.63;;;18.00;99.90;;;;;;5048820;28;20157;-61
2022/04/03 10:04:15;;;;;;;19.38;4.85;;;18.00;99.90;;;;;;5051202;28;20172;-61
2022/04/03 10:06:43;;;;;;;18.45;4.70;;;18.00;99.90;;;;;;5050472;28;20085;-62
2022/04/03 10:09:15;;;;;;;16.75;4.82;;;17.90;99.90;;;;;;5032745;28;20080;-60
2022/04/03 10:11:42;;;;;;;21.02;4.53;;;17.90;99.90;;;;;;5048286;28;20606;-59
2022/04/03 10:14:10;;;;;;;24.25;4.88;;;17.90;99.90;;;;;;5034150;28;20940;-60
2022/04/03 10:16:36;;;;;;;13.95;4.13;;;18.00;99.90;;;;;;5030670;28;20164;-60
2022/04/03 10:19:03;;;;;;;16.50;4.38;;;17.90;99.90;;;;;;5048894;28;20754;-59
2022/04/03 10:21:38;;;;;;;15.60;4.80;;;17.80;99.90;;;;;;5051394;28;20109;-63
2022/04/03 10:24:17;;;;;;;20.30;4.60;;;17.70;99.90;;;;;;5052021;28;20163;-61
2022/04/03 10:26:49;;;;;;;16.45;4.78;;;17.70;99.90;;;;;;5054295;28;20618;-63
2022/04/03 10:29:15;;;;;;;14.77;4.18;;;17.60;99.90;;;;;;5049150;28;20607;-61
2022/04/03 10:31:55;;;;;;;19.80;4.32;;;17.60;99.90;;;;;;5048534;28;20086;-60
2022/04/03 10:34:22;;;;;;;16.77;4.70;;;17.80;99.90;;;;;;5032570;28;20485;-61
2022/04/03 10:36:53;;;;;;;20.10;4.70;;;17.70;99.90;;;;;;5051451;28;20077;-61
2022/04/03 10:39:27;;;;;;;16.27;4.55;;;17.60;99.90;;;;;;5047215;28;20082;-61
2022/04/03 10:42:25;;;;;;;14.38;4.00;;;17.60;99.90;;;;;;5032748;28;20081;-63
2022/04/03 10:45:10;;;;;;;;;;;17.60;99.90;;;;;;5033168;28;20112;-59
2022/04/03 10:47:37;;;;;;;15.82;3.58;;;17.50;99.90;;;;;;5051080;28;19960;-59
2022/04/03 10:50:05;;;;;;;13.80;4.00;;;17.50;99.90;;;;;;5050239;28;20080;-59
2022/04/03 10:52:38;;;;;;;18.33;4.20;;;17.50;99.90;;;;;;5048521;28;20164;-60
2022/04/03 10:55:35;;;;;;;18.52;4.05;;;17.50;99.90;;;;;;5057243;28;20085;-62
2022/04/03 10:58:06;;;;;;;16.85;4.32;;;17.50;99.90;;;;;;5054814;28;20088;-60
2022/04/03 11:00:37;;;;;;;16.02;3.70;;;17.50;99.90;;;;;;5032029;28;20541;-60
2022/04/03 11:03:18;;;;;;;20.52;4.13;;;17.60;99.90;;;;;;5066277;28;20520;-59
2022/04/03 11:05:50;;;;;;;20.20;4.40;;;17.60;99.90;;;;;;5052348;28;20088;-62
2022/04/03 11:08:18;;;;;;;12.05;3.92;;;17.60;99.90;;;;;;5048259;28;20115;-59
2022/04/03 11:10:58;;;;;;;19.35;4.15;;;17.70;99.90;;;;;;5047789;28;20074;-60
2022/04/03 11:13:38;;;;;;;15.48;4.47;;;17.60;99.90;;;;;;5048614;28;20156;-61
2022/04/03 11:16:09;;;;;;;19.33;3.90;;;17.70;99.90;;;;;;5047352;28;20595;-63
2022/04/03 11:18:47;;;;;;;15.98;4.00;;;17.60;99.90;;;;;;5047565;28;20172;-61
2022/04/03 11:21:28;;;;;;;16.48;4.03;;;17.60;99.90;;;;;;5031259;28;20078;-62
2022/04/03 11:24:08;;;;;;;16.75;4.22;;;17.70;99.90;;;;;;5030955;28;20433;-60
2022/04/03 11:26:36;;;;;;;13.27;3.80;;;17.60;99.90;;;;;;5048253;28;20184;-59
2022/04/03 11:29:05;;;;;;;16.45;3.75;;;17.60;99.90;;;;;;5047679;28;20066;-60
2022/04/03 11:31:33;;;;;;;14.07;3.60;;;17.70;99.90;;;;;;5047348;28;20531;-60
2022/04/03 11:34:00;;;;;;;17.92;4.30;;;17.70;99.90;;;;;;5050205;28;20108;-61
2022/04/03 11:36:29;;;;;;;17.38;4.03;;;17.70;99.90;;;;;;5050201;28;20610;-62
2022/04/03 11:38:56;;;;;;;17.85;4.18;;;17.60;99.90;;;;;;5047739;28;20572;-60
2022/04/03 11:41:34;;;;;;;13.65;4.15;;;17.60;99.90;;;;;;5046688;28;20077;-61
2022/04/03 11:44:06;;;;;;;20.48;4.47;;;17.50;99.90;;;;;;5048148;28;20100;-61
2022/04/03 11:46:44;;;;;;;21.83;5.03;;;17.50;99.90;;;;;;5047748;28;20118;-63
2022/04/03 11:49:15;;;;;;;13.60;4.40;;;17.40;99.90;;;;;;5031120;28;20089;-61
2022/04/03 11:51:44;;;;;;;22.27;4.03;;;17.50;99.90;;;;;;5047027;28;20208;-62
2022/04/03 11:54:11;;;;;;;18.63;4.22;;;17.40;99.90;;;;;;5030818;28;20508;-59
2022/04/03 11:56:38;;;;;;;22.25;4.57;;;17.30;99.90;;;;;;5048304;28;20093;-59
2022/04/03 11:59:06;;;;;;;19.63;4.75;;;17.20;99.90;;;;;;5047152;28;20073;-61
2022/04/03 12:01:49;;;;;;;20.25;5.13;;;17.40;99.90;;;;;;5047049;28;20452;-59
2022/04/03 12:04:16;;;;;;;27.77;5.03;;;17.40;99.90;;;;;;5046659;28;20116;-62
2022/04/03 12:06:50;;;;;;;14.70;4.60;;;17.50;99.90;;;;;;5031006;28;20402;-59
2022/04/03 12:09:19;;;;;;;20.67;4.30;;;17.50;99.90;;;;;;5047268;28;20112;-61
2022/04/03 12:11:51;;;;;;;20.00;5.15;;;17.40;99.90;;;;;;5033834;28;20501;-61
2022/04/03 12:14:31;;;;;;;17.83;4.88;;;17.40;99.90;;;;;;5047165;28;20582;-60
2022/04/03 12:17:03;;;;;;;24.20;6.05;;;17.50;99.90;;;;;;5047883;28;20085;-63
2022/04/03 12:19:42;;;;;;;21.20;6.05;;;17.50;99.90;;;;;;5046704;28;20085;-62
2022/04/03 12:22:12;;;;;;;19.05;5.32;;;17.50;99.90;;;;;;5046910;28;20101;-63
2022/04/03 12:24:39;;;;;;;29.90;6.80;;;17.50;99.90;;;;;;5048421;28;20483;-62
2022/04/03 12:27:15;;;;;;;22.63;5.88;;;17.40;99.90;;;;;;5031518;28;20561;-62
2022/04/03 12:29:50;;;;;;;25.33;7.68;;;17.50;99.90;;;;;;5047704;28;20065;-62
2022/04/03 12:32:36;;;;;;;27.30;7.75;;;17.40;99.90;;;;;;5033265;28;20064;-63
2022/04/03 12:35:10;;;;;;;32.90;7.95;;;17.30;99.90;;;;;;5046924;28;20073;-63
2022/04/03 12:37:41;;;;;;;26.02;7.18;;;17.20;99.90;;;;;;5046290;28;20074;-64
2022/04/03 12:40:15;;;;;;;25.05;7.10;;;17.20;99.90;;;;;;5051342;28;20076;-63
2022/04/03 12:42:46;;;;;;;24.40;7.00;;;17.00;99.90;;;;;;5050660;28;20132;-62
2022/04/03 12:45:17;;;;;;;26.58;6.68;;;17.10;99.90;;;;;;5033365;28;20069;-62